Grygla, Minnesota
Current Conditions -  °F | °C
As of 8:55 AM on Thursday 30 Oct 2014 (Local Time) from KTVF Reporting Station
Overcast Overcast  
Wind Chill: 28°   Ceiling: 2600
Heat Index: 34°   Visibility: 10mi
Dew Point: 30°   Wind: 7mph
Humidity: 87%   Direction: 340°NNW
Pressure: 30.16"   Gusts: NA
Location:  48.3°N, 95.62°W
Report Text: KTVF 301355Z AUTO 34006KT 10SM BKN026 OVC120 01/M01 A3016 RMK AO1
Loading
Personal Weather Stations






























Interactive Weather Map
Tropical Storm Tracking
New forecast layout! Learn more

10-Day Weather Forecast

Advertisements
Track Severe Weather on mobile